sensor_id;sensor_type;location;lat;lon;timestamp;temperature;humidity
40538;DHT22;27925;41.874;12.526;2023-02-28T00:01:24;10.00;86.40
40538;DHT22;27925;41.874;12.526;2023-02-28T00:03:50;10.00;86.30
40538;DHT22;27925;41.874;12.526;2023-02-28T00:06:16;10.00;86.30
40538;DHT22;27925;41.874;12.526;2023-02-28T00:08:42;10.00;85.90
40538;DHT22;27925;41.874;12.526;2023-02-28T00:11:11;10.00;86.10
40538;DHT22;27925;41.874;12.526;2023-02-28T00:13:39;10.00;86.30
40538;DHT22;27925;41.874;12.526;2023-02-28T00:16:08;10.00;86.00
40538;DHT22;27925;41.874;12.526;2023-02-28T00:18:34;10.10;85.90
40538;DHT22;27925;41.874;12.526;2023-02-28T00:21:00;10.20;85.90
40538;DHT22;27925;41.874;12.526;2023-02-28T00:23:26;10.20;85.60
40538;DHT22;27925;41.874;12.526;2023-02-28T00:25:52;10.20;85.20
40538;DHT22;27925;41.874;12.526;2023-02-28T00:28:18;10.20;85.30
40538;DHT22;27925;41.874;12.526;2023-02-28T00:30:44;10.20;84.90
40538;DHT22;27925;41.874;12.526;2023-02-28T00:39:54;10.30;84.40
40538;DHT22;27925;41.874;12.526;2023-02-28T00:42:20;10.30;83.90
40538;DHT22;27925;41.874;12.526;2023-02-28T00:44:46;10.30;84.10
40538;DHT22;27925;41.874;12.526;2023-02-28T00:47:11;10.30;83.80
40538;DHT22;27925;41.874;12.526;2023-02-28T00:49:37;10.30;84.00
40538;DHT22;27925;41.874;12.526;2023-02-28T00:52:03;10.30;83.90
40538;DHT22;27925;41.874;12.526;2023-02-28T00:54:28;10.30;83.70
40538;DHT22;27925;41.874;12.526;2023-02-28T00:56:54;10.20;83.80
40538;DHT22;27925;41.874;12.526;2023-02-28T00:59:20;10.10;83.90
40538;DHT22;27925;41.874;12.526;2023-02-28T01:01:46;10.00;83.80
40538;DHT22;27925;41.874;12.526;2023-02-28T01:04:13;10.00;84.10
40538;DHT22;27925;41.874;12.526;2023-02-28T01:06:39;10.00;84.20
40538;DHT22;27925;41.874;12.526;2023-02-28T01:09:05;10.00;84.50
40538;DHT22;27925;41.874;12.526;2023-02-28T01:11:32;10.00;84.50
40538;DHT22;27925;41.874;12.526;2023-02-28T01:13:59;10.10;84.30
40538;DHT22;27925;41.874;12.526;2023-02-28T01:16:24;10.00;83.90
40538;DHT22;27925;41.874;12.526;2023-02-28T01:18:50;10.00;84.00
40538;DHT22;27925;41.874;12.526;2023-02-28T01:21:18;10.00;84.10
40538;DHT22;27925;41.874;12.526;2023-02-28T01:23:44;10.00;84.10
40538;DHT22;27925;41.874;12.526;2023-02-28T01:26:16;9.90;84.70
40538;DHT22;27925;41.874;12.526;2023-02-28T01:28:43;9.80;84.80
40538;DHT22;27925;41.874;12.526;2023-02-28T01:31:10;9.90;85.20
40538;DHT22;27925;41.874;12.526;2023-02-28T01:33:36;9.80;85.30
40538;DHT22;27925;41.874;12.526;2023-02-28T01:36:05;9.80;85.10
40538;DHT22;27925;41.874;12.526;2023-02-28T01:38:31;9.80;84.70
40538;DHT22;27925;41.874;12.526;2023-02-28T01:40:57;9.80;85.00
40538;DHT22;27925;41.874;12.526;2023-02-28T01:43:25;9.80;85.30
40538;DHT22;27925;41.874;12.526;2023-02-28T01:45:56;9.80;85.00
40538;DHT22;27925;41.874;12.526;2023-02-28T01:48:28;9.80;85.10
40538;DHT22;27925;41.874;12.526;2023-02-28T01:50:58;9.80;84.60
40538;DHT22;27925;41.874;12.526;2023-02-28T01:53:31;9.70;85.10
40538;DHT22;27925;41.874;12.526;2023-02-28T01:55:58;9.70;85.40
40538;DHT22;27925;41.874;12.526;2023-02-28T01:58:24;9.70;85.30
40538;DHT22;27925;41.874;12.526;2023-02-28T02:00:50;9.70;85.50
40538;DHT22;27925;41.874;12.526;2023-02-28T02:03:18;9.70;85.40
40538;DHT22;27925;41.874;12.526;2023-02-28T02:05:45;9.70;85.30
40538;DHT22;27925;41.874;12.526;2023-02-28T02:08:17;9.70;85.60
40538;DHT22;27925;41.874;12.526;2023-02-28T02:10:46;9.70;85.60
40538;DHT22;27925;41.874;12.526;2023-02-28T02:35:40;9.60;84.80
40538;DHT22;27925;41.874;12.526;2023-02-28T02:38:34;9.60;84.90
40538;DHT22;27925;41.874;12.526;2023-02-28T02:43:44;9.40;85.70
40538;DHT22;27925;41.874;12.526;2023-02-28T02:46:21;9.40;86.00
40538;DHT22;27925;41.874;12.526;2023-02-28T02:48:48;9.40;85.90
40538;DHT22;27925;41.874;12.526;2023-02-28T02:51:17;9.50;86.20
40538;DHT22;27925;41.874;12.526;2023-02-28T02:56:33;9.50;85.60
40538;DHT22;27925;41.874;12.526;2023-02-28T02:59:03;9.50;86.00
40538;DHT22;27925;41.874;12.526;2023-02-28T03:01:31;9.40;85.80
40538;DHT22;27925;41.874;12.526;2023-02-28T03:04:08;9.50;86.10
40538;DHT22;27925;41.874;12.526;2023-02-28T03:09:57;9.40;85.10
40538;DHT22;27925;41.874;12.526;2023-02-28T03:12:32;9.40;85.80
40538;DHT22;27925;41.874;12.526;2023-02-28T03:18:42;9.40;85.10
40538;DHT22;27925;41.874;12.526;2023-02-28T03:26:24;9.40;85.70
40538;DHT22;27925;41.874;12.526;2023-02-28T03:29:02;9.40;85.10
40538;DHT22;27925;41.874;12.526;2023-02-28T03:31:58;9.30;85.80
40538;DHT22;27925;41.874;12.526;2023-02-28T03:34:39;9.30;85.10
40538;DHT22;27925;41.874;12.526;2023-02-28T03:37:18;9.20;85.60
40538;DHT22;27925;41.874;12.526;2023-02-28T03:39:47;9.10;85.80
40538;DHT22;27925;41.874;12.526;2023-02-28T03:42:19;9.10;85.90
40538;DHT22;27925;41.874;12.526;2023-02-28T03:44:51;9.10;85.10
40538;DHT22;27925;41.874;12.526;2023-02-28T03:47:27;9.00;85.70
40538;DHT22;27925;41.874;12.526;2023-02-28T03:50:01;9.10;86.20
40538;DHT22;27925;41.874;12.526;2023-02-28T03:52:32;9.10;85.00
40538;DHT22;27925;41.874;12.526;2023-02-28T03:55:03;9.00;85.80
40538;DHT22;27925;41.874;12.526;2023-02-28T03:57:38;9.00;85.50
40538;DHT22;27925;41.874;12.526;2023-02-28T04:00:18;9.00;85.10
40538;DHT22;27925;41.874;12.526;2023-02-28T04:02:45;9.00;85.70
40538;DHT22;27925;41.874;12.526;2023-02-28T04:05:11;9.10;85.70
40538;DHT22;27925;41.874;12.526;2023-02-28T04:07:37;9.20;85.60
40538;DHT22;27925;41.874;12.526;2023-02-28T04:10:04;9.20;85.10
40538;DHT22;27925;41.874;12.526;2023-02-28T04:12:30;9.30;84.90
40538;DHT22;27925;41.874;12.526;2023-02-28T04:14:55;9.30;84.80
40538;DHT22;27925;41.874;12.526;2023-02-28T04:17:21;9.30;84.60
40538;DHT22;27925;41.874;12.526;2023-02-28T04:19:47;9.40;84.40
40538;DHT22;27925;41.874;12.526;2023-02-28T04:22:12;9.50;84.50
40538;DHT22;27925;41.874;12.526;2023-02-28T04:24:39;9.50;84.50
40538;DHT22;27925;41.874;12.526;2023-02-28T04:27:07;9.50;84.00
40538;DHT22;27925;41.874;12.526;2023-02-28T04:29:33;9.50;84.70
40538;DHT22;27925;41.874;12.526;2023-02-28T04:32:00;9.50;83.80
40538;DHT22;27925;41.874;12.526;2023-02-28T04:34:27;9.50;83.90
40538;DHT22;27925;41.874;12.526;2023-02-28T04:36:55;9.60;84.20
40538;DHT22;27925;41.874;12.526;2023-02-28T04:39:23;9.60;83.70
40538;DHT22;27925;41.874;12.526;2023-02-28T04:41:49;9.60;83.60
40538;DHT22;27925;41.874;12.526;2023-02-28T04:44:15;9.60;83.40
40538;DHT22;27925;41.874;12.526;2023-02-28T04:46:42;9.60;83.60
40538;DHT22;27925;41.874;12.526;2023-02-28T04:49:11;9.50;83.30
40538;DHT22;27925;41.874;12.526;2023-02-28T04:51:37;9.50;83.90
40538;DHT22;27925;41.874;12.526;2023-02-28T04:54:03;9.40;83.30
40538;DHT22;27925;41.874;12.526;2023-02-28T04:56:29;9.40;83.80
40538;DHT22;27925;41.874;12.526;2023-02-28T04:58:55;9.50;83.90
40538;DHT22;27925;41.874;12.526;2023-02-28T05:01:24;9.50;83.50
40538;DHT22;27925;41.874;12.526;2023-02-28T05:03:52;9.40;83.70
40538;DHT22;27925;41.874;12.526;2023-02-28T05:06:18;9.50;83.40
40538;DHT22;27925;41.874;12.526;2023-02-28T05:08:44;9.50;83.50
40538;DHT22;27925;41.874;12.526;2023-02-28T05:11:21;9.50;83.20
40538;DHT22;27925;41.874;12.526;2023-02-28T05:13:49;9.50;83.30
40538;DHT22;27925;41.874;12.526;2023-02-28T05:16:15;9.60;83.10
40538;DHT22;27925;41.874;12.526;2023-02-28T05:18:41;9.50;82.70
40538;DHT22;27925;41.874;12.526;2023-02-28T05:23:45;9.50;82.70
40538;DHT22;27925;41.874;12.526;2023-02-28T05:26:10;9.50;82.50
40538;DHT22;27925;41.874;12.526;2023-02-28T05:28:36;9.50;82.50
40538;DHT22;27925;41.874;12.526;2023-02-28T05:31:02;9.40;82.70
40538;DHT22;27925;41.874;12.526;2023-02-28T05:33:27;9.40;82.60
40538;DHT22;27925;41.874;12.526;2023-02-28T05:35:53;9.40;82.90
40538;DHT22;27925;41.874;12.526;2023-02-28T05:38:19;9.40;82.70
40538;DHT22;27925;41.874;12.526;2023-02-28T05:40:45;9.30;82.70
40538;DHT22;27925;41.874;12.526;2023-02-28T05:43:11;9.30;82.30
40538;DHT22;27925;41.874;12.526;2023-02-28T05:45:37;9.20;82.20
40538;DHT22;27925;41.874;12.526;2023-02-28T05:48:03;9.10;82.30
40538;DHT22;27925;41.874;12.526;2023-02-28T05:50:28;9.10;82.60
40538;DHT22;27925;41.874;12.526;2023-02-28T05:52:54;9.00;82.50
40538;DHT22;27925;41.874;12.526;2023-02-28T05:55:20;9.00;82.40
40538;DHT22;27925;41.874;12.526;2023-02-28T05:57:45;9.10;82.30
40538;DHT22;27925;41.874;12.526;2023-02-28T06:00:12;9.10;82.40
40538;DHT22;27925;41.874;12.526;2023-02-28T06:02:40;9.10;82.20
40538;DHT22;27925;41.874;12.526;2023-02-28T06:05:15;9.10;82.50
40538;DHT22;27925;41.874;12.526;2023-02-28T06:07:41;9.20;81.80
40538;DHT22;27925;41.874;12.526;2023-02-28T06:10:07;9.20;81.80
40538;DHT22;27925;41.874;12.526;2023-02-28T06:12:33;9.20;82.10
40538;DHT22;27925;41.874;12.526;2023-02-28T06:14:59;9.20;82.00
40538;DHT22;27925;41.874;12.526;2023-02-28T06:17:24;9.30;81.80
40538;DHT22;27925;41.874;12.526;2023-02-28T06:19:50;9.20;81.50
40538;DHT22;27925;41.874;12.526;2023-02-28T06:22:16;9.20;81.50
40538;DHT22;27925;41.874;12.526;2023-02-28T06:24:41;9.20;81.80
40538;DHT22;27925;41.874;12.526;2023-02-28T06:27:07;9.40;82.00
40538;DHT22;27925;41.874;12.526;2023-02-28T06:29:34;9.40;81.40
40538;DHT22;27925;41.874;12.526;2023-02-28T06:32:00;9.50;81.80
40538;DHT22;27925;41.874;12.526;2023-02-28T06:34:26;9.50;81.40
40538;DHT22;27925;41.874;12.526;2023-02-28T06:36:52;9.50;81.40
40538;DHT22;27925;41.874;12.526;2023-02-28T06:39:18;9.50;81.60
40538;DHT22;27925;41.874;12.526;2023-02-28T06:41:44;9.50;81.00
40538;DHT22;27925;41.874;12.526;2023-02-28T06:44:16;9.40;81.40
40538;DHT22;27925;41.874;12.526;2023-02-28T06:46:43;9.50;81.70
40538;DHT22;27925;41.874;12.526;2023-02-28T06:49:09;9.60;81.60
40538;DHT22;27925;41.874;12.526;2023-02-28T06:51:40;9.60;81.20
40538;DHT22;27925;41.874;12.526;2023-02-28T06:54:07;9.60;80.70
40538;DHT22;27925;41.874;12.526;2023-02-28T06:56:35;9.60;81.20
40538;DHT22;27925;41.874;12.526;2023-02-28T06:59:01;9.70;81.20
40538;DHT22;27925;41.874;12.526;2023-02-28T07:01:27;9.80;81.30
40538;DHT22;27925;41.874;12.526;2023-02-28T07:03:54;9.80;81.00
40538;DHT22;27925;41.874;12.526;2023-02-28T07:06:24;9.80;81.00
40538;DHT22;27925;41.874;12.526;2023-02-28T07:08:51;9.80;81.10
40538;DHT22;27925;41.874;12.526;2023-02-28T07:11:18;9.80;81.10
40538;DHT22;27925;41.874;12.526;2023-02-28T07:13:44;9.90;81.10
40538;DHT22;27925;41.874;12.526;2023-02-28T07:16:11;9.90;80.40
40538;DHT22;27925;41.874;12.526;2023-02-28T07:18:37;10.00;79.60
40538;DHT22;27925;41.874;12.526;2023-02-28T07:21:05;10.10;79.70
40538;DHT22;27925;41.874;12.526;2023-02-28T07:23:31;10.20;78.70
40538;DHT22;27925;41.874;12.526;2023-02-28T07:25:56;10.20;78.40
40538;DHT22;27925;41.874;12.526;2023-02-28T07:28:22;10.10;78.20
40538;DHT22;27925;41.874;12.526;2023-02-28T07:30:48;10.10;78.30
40538;DHT22;27925;41.874;12.526;2023-02-28T07:33:14;10.20;78.20
40538;DHT22;27925;41.874;12.526;2023-02-28T07:35:40;10.20;78.10
40538;DHT22;27925;41.874;12.526;2023-02-28T07:38:06;10.30;78.00
40538;DHT22;27925;41.874;12.526;2023-02-28T07:40:34;10.30;77.70
40538;DHT22;27925;41.874;12.526;2023-02-28T07:43:00;10.40;77.70
40538;DHT22;27925;41.874;12.526;2023-02-28T07:45:27;10.40;77.30
40538;DHT22;27925;41.874;12.526;2023-02-28T07:47:54;10.50;77.60
40538;DHT22;27925;41.874;12.526;2023-02-28T07:50:21;10.60;77.20
40538;DHT22;27925;41.874;12.526;2023-02-28T07:52:47;10.70;76.90
40538;DHT22;27925;41.874;12.526;2023-02-28T07:55:13;10.70;76.70
40538;DHT22;27925;41.874;12.526;2023-02-28T07:57:39;10.80;76.60
40538;DHT22;27925;41.874;12.526;2023-02-28T08:00:07;10.80;76.50
40538;DHT22;27925;41.874;12.526;2023-02-28T08:02:35;10.80;76.40
40538;DHT22;27925;41.874;12.526;2023-02-28T08:05:01;10.90;76.60
40538;DHT22;27925;41.874;12.526;2023-02-28T08:07:27;11.00;76.60
40538;DHT22;27925;41.874;12.526;2023-02-28T08:09:53;11.10;76.10
40538;DHT22;27925;41.874;12.526;2023-02-28T08:12:19;11.20;76.20
40538;DHT22;27925;41.874;12.526;2023-02-28T08:14:45;11.30;75.70
40538;DHT22;27925;41.874;12.526;2023-02-28T08:17:11;11.30;75.90
40538;DHT22;27925;41.874;12.526;2023-02-28T08:19:37;11.30;75.60
40538;DHT22;27925;41.874;12.526;2023-02-28T08:22:03;11.40;75.70
40538;DHT22;27925;41.874;12.526;2023-02-28T08:24:28;11.40;75.40
40538;DHT22;27925;41.874;12.526;2023-02-28T08:26:55;11.50;75.70
40538;DHT22;27925;41.874;12.526;2023-02-28T08:29:20;11.50;75.80
40538;DHT22;27925;41.874;12.526;2023-02-28T08:31:46;11.60;75.60
40538;DHT22;27925;41.874;12.526;2023-02-28T08:34:14;11.70;75.40
40538;DHT22;27925;41.874;12.526;2023-02-28T08:36:41;11.70;75.00
40538;DHT22;27925;41.874;12.526;2023-02-28T08:39:09;11.80;75.20
40538;DHT22;27925;41.874;12.526;2023-02-28T08:41:35;11.90;75.30
40538;DHT22;27925;41.874;12.526;2023-02-28T08:44:00;11.90;75.10
40538;DHT22;27925;41.874;12.526;2023-02-28T08:46:26;12.00;75.20
40538;DHT22;27925;41.874;12.526;2023-02-28T08:48:54;12.20;74.50
40538;DHT22;27925;41.874;12.526;2023-02-28T08:51:21;12.30;74.10
40538;DHT22;27925;41.874;12.526;2023-02-28T08:53:52;12.40;73.90
40538;DHT22;27925;41.874;12.526;2023-02-28T08:56:19;12.50;73.50
40538;DHT22;27925;41.874;12.526;2023-02-28T08:58:45;12.70;72.60
40538;DHT22;27925;41.874;12.526;2023-02-28T09:01:18;12.80;72.50
40538;DHT22;27925;41.874;12.526;2023-02-28T09:03:45;12.90;72.60
40538;DHT22;27925;41.874;12.526;2023-02-28T09:06:12;13.00;71.90
40538;DHT22;27925;41.874;12.526;2023-02-28T09:08:39;13.10;71.90
40538;DHT22;27925;41.874;12.526;2023-02-28T09:11:05;13.20;71.70
40538;DHT22;27925;41.874;12.526;2023-02-28T09:13:31;13.30;71.10
40538;DHT22;27925;41.874;12.526;2023-02-28T09:15:58;13.40;70.90
40538;DHT22;27925;41.874;12.526;2023-02-28T09:18:25;13.50;70.80
40538;DHT22;27925;41.874;12.526;2023-02-28T09:20:51;13.60;70.40
40538;DHT22;27925;41.874;12.526;2023-02-28T09:23:18;13.60;69.50
40538;DHT22;27925;41.874;12.526;2023-02-28T09:25:49;13.70;69.60
40538;DHT22;27925;41.874;12.526;2023-02-28T09:28:16;13.70;69.90
40538;DHT22;27925;41.874;12.526;2023-02-28T09:30:44;13.70;69.10
40538;DHT22;27925;41.874;12.526;2023-02-28T09:33:11;13.80;68.90
40538;DHT22;27925;41.874;12.526;2023-02-28T09:35:36;13.80;68.30
40538;DHT22;27925;41.874;12.526;2023-02-28T09:38:03;13.90;67.70
40538;DHT22;27925;41.874;12.526;2023-02-28T09:40:30;14.00;67.90
40538;DHT22;27925;41.874;12.526;2023-02-28T09:42:57;14.20;67.20
40538;DHT22;27925;41.874;12.526;2023-02-28T09:45:32;14.20;67.20
40538;DHT22;27925;41.874;12.526;2023-02-28T09:48:20;14.30;66.90
40538;DHT22;27925;41.874;12.526;2023-02-28T09:50:54;14.40;66.30
40538;DHT22;27925;41.874;12.526;2023-02-28T09:53:27;14.50;66.30
40538;DHT22;27925;41.874;12.526;2023-02-28T09:56:15;14.60;66.40
40538;DHT22;27925;41.874;12.526;2023-02-28T09:58:51;14.70;66.20
40538;DHT22;27925;41.874;12.526;2023-02-28T10:06:23;15.10;64.90
40538;DHT22;27925;41.874;12.526;2023-02-28T10:08:59;15.10;63.50
40538;DHT22;27925;41.874;12.526;2023-02-28T10:11:28;15.10;63.10
40538;DHT22;27925;41.874;12.526;2023-02-28T10:14:01;15.10;63.10
40538;DHT22;27925;41.874;12.526;2023-02-28T10:16:40;15.00;62.20
40538;DHT22;27925;41.874;12.526;2023-02-28T10:19:17;15.10;62.50
40538;DHT22;27925;41.874;12.526;2023-02-28T10:26:59;14.90;62.10
40538;DHT22;27925;41.874;12.526;2023-02-28T10:29:26;14.90;62.50
40538;DHT22;27925;41.874;12.526;2023-02-28T10:31:51;14.90;62.30
40538;DHT22;27925;41.874;12.526;2023-02-28T10:34:17;14.80;61.20
40538;DHT22;27925;41.874;12.526;2023-02-28T10:36:43;14.80;61.90
40538;DHT22;27925;41.874;12.526;2023-02-28T10:39:40;14.90;61.00
40538;DHT22;27925;41.874;12.526;2023-02-28T10:42:28;15.00;61.90
40538;DHT22;27925;41.874;12.526;2023-02-28T10:45:13;15.00;60.80
40538;DHT22;27925;41.874;12.526;2023-02-28T10:47:55;15.20;61.10
40538;DHT22;27925;41.874;12.526;2023-02-28T10:53:28;15.40;60.40
40538;DHT22;27925;41.874;12.526;2023-02-28T10:56:04;15.50;60.50
40538;DHT22;27925;41.874;12.526;2023-02-28T10:58:31;15.50;60.30
40538;DHT22;27925;41.874;12.526;2023-02-28T11:01:22;15.50;59.90
40538;DHT22;27925;41.874;12.526;2023-02-28T11:03:49;15.50;60.20
40538;DHT22;27925;41.874;12.526;2023-02-28T11:06:21;15.40;60.10
40538;DHT22;27925;41.874;12.526;2023-02-28T11:09:22;15.40;60.30
40538;DHT22;27925;41.874;12.526;2023-02-28T11:11:46;15.40;60.00
40538;DHT22;27925;41.874;12.526;2023-02-28T11:14:24;15.50;60.20
40538;DHT22;27925;41.874;12.526;2023-02-28T11:16:51;15.60;60.20
40538;DHT22;27925;41.874;12.526;2023-02-28T11:19:38;15.60;59.50
40538;DHT22;27925;41.874;12.526;2023-02-28T11:22:06;15.60;59.10
40538;DHT22;27925;41.874;12.526;2023-02-28T11:24:36;15.80;58.60
40538;DHT22;27925;41.874;12.526;2023-02-28T11:27:03;15.90;58.30
40538;DHT22;27925;41.874;12.526;2023-02-28T11:29:31;16.10;58.10
40538;DHT22;27925;41.874;12.526;2023-02-28T11:34:38;16.20;57.70
40538;DHT22;27925;41.874;12.526;2023-02-28T11:37:10;16.30;56.90
40538;DHT22;27925;41.874;12.526;2023-02-28T11:39:37;16.40;56.60
40538;DHT22;27925;41.874;12.526;2023-02-28T11:42:23;16.50;57.00
40538;DHT22;27925;41.874;12.526;2023-02-28T11:48:05;16.50;56.40
40538;DHT22;27925;41.874;12.526;2023-02-28T11:56:44;16.50;56.90
40538;DHT22;27925;41.874;12.526;2023-02-28T12:04:55;16.60;57.10
40538;DHT22;27925;41.874;12.526;2023-02-28T12:08:06;16.70;56.10
40538;DHT22;27925;41.874;12.526;2023-02-28T12:21:34;16.90;55.90
40538;DHT22;27925;41.874;12.526;2023-02-28T12:24:22;16.90;54.20
40538;DHT22;27925;41.874;12.526;2023-02-28T12:26:52;17.00;54.60
40538;DHT22;27925;41.874;12.526;2023-02-28T12:29:29;16.90;53.70
40538;DHT22;27925;41.874;12.526;2023-02-28T12:32:01;16.90;53.80
40538;DHT22;27925;41.874;12.526;2023-02-28T12:34:52;16.90;53.30
40538;DHT22;27925;41.874;12.526;2023-02-28T12:37:29;16.80;52.30
40538;DHT22;27925;41.874;12.526;2023-02-28T12:40:02;16.70;52.10
40538;DHT22;27925;41.874;12.526;2023-02-28T12:42:49;16.60;52.00
40538;DHT22;27925;41.874;12.526;2023-02-28T12:48:01;16.30;52.40
40538;DHT22;27925;41.874;12.526;2023-02-28T12:50:29;16.30;52.90
40538;DHT22;27925;41.874;12.526;2023-02-28T12:53:03;16.20;52.70
40538;DHT22;27925;41.874;12.526;2023-02-28T13:09:35;16.00;56.40
40538;DHT22;27925;41.874;12.526;2023-02-28T13:12:13;16.00;56.80
40538;DHT22;27925;41.874;12.526;2023-02-28T13:14:39;16.00;57.20
40538;DHT22;27925;41.874;12.526;2023-02-28T13:19:57;15.90;57.70
40538;DHT22;27925;41.874;12.526;2023-02-28T13:22:43;15.80;57.90
40538;DHT22;27925;41.874;12.526;2023-02-28T13:27:53;15.80;57.90
40538;DHT22;27925;41.874;12.526;2023-02-28T13:38:48;15.60;57.70
40538;DHT22;27925;41.874;12.526;2023-02-28T13:44:02;15.60;57.60
40538;DHT22;27925;41.874;12.526;2023-02-28T13:46:28;15.60;57.10
40538;DHT22;27925;41.874;12.526;2023-02-28T13:48:54;15.60;57.30
40538;DHT22;27925;41.874;12.526;2023-02-28T14:05:41;15.80;56.80
40538;DHT22;27925;41.874;12.526;2023-02-28T14:08:20;15.90;57.10
40538;DHT22;27925;41.874;12.526;2023-02-28T14:10:49;15.90;56.90
40538;DHT22;27925;41.874;12.526;2023-02-28T14:13:43;16.00;56.80
40538;DHT22;27925;41.874;12.526;2023-02-28T14:16:11;16.10;56.70
40538;DHT22;27925;41.874;12.526;2023-02-28T14:18:42;16.10;56.10
40538;DHT22;27925;41.874;12.526;2023-02-28T14:29:33;16.70;55.40
40538;DHT22;27925;41.874;12.526;2023-02-28T14:32:11;16.80;55.80
40538;DHT22;27925;41.874;12.526;2023-02-28T14:37:15;16.60;55.40
40538;DHT22;27925;41.874;12.526;2023-02-28T14:39:43;16.60;55.20
40538;DHT22;27925;41.874;12.526;2023-02-28T14:42:29;16.50;55.00
40538;DHT22;27925;41.874;12.526;2023-02-28T14:44:55;16.40;55.70
40538;DHT22;27925;41.874;12.526;2023-02-28T14:47:28;16.30;56.00
40538;DHT22;27925;41.874;12.526;2023-02-28T14:49:55;16.20;56.00
40538;DHT22;27925;41.874;12.526;2023-02-28T14:52:27;16.10;55.60
40538;DHT22;27925;41.874;12.526;2023-02-28T14:55:06;16.00;56.10
40538;DHT22;27925;41.874;12.526;2023-02-28T14:57:42;16.00;55.60
40538;DHT22;27925;41.874;12.526;2023-02-28T15:00:28;15.90;55.70
40538;DHT22;27925;41.874;12.526;2023-02-28T15:02:56;15.90;55.90
40538;DHT22;27925;41.874;12.526;2023-02-28T15:05:32;15.80;56.10
40538;DHT22;27925;41.874;12.526;2023-02-28T15:08:12;15.80;56.30
40538;DHT22;27925;41.874;12.526;2023-02-28T15:10:43;15.70;56.70
40538;DHT22;27925;41.874;12.526;2023-02-28T15:13:14;15.70;56.80
40538;DHT22;27925;41.874;12.526;2023-02-28T15:20:50;15.40;57.80
40538;DHT22;27925;41.874;12.526;2023-02-28T15:23:18;15.40;58.10
40538;DHT22;27925;41.874;12.526;2023-02-28T15:25:44;15.30;58.30
40538;DHT22;27925;41.874;12.526;2023-02-28T15:28:16;15.20;58.60
40538;DHT22;27925;41.874;12.526;2023-02-28T15:31:01;15.10;59.10
40538;DHT22;27925;41.874;12.526;2023-02-28T15:33:30;15.00;59.80
40538;DHT22;27925;41.874;12.526;2023-02-28T15:36:11;15.00;60.10
40538;DHT22;27925;41.874;12.526;2023-02-28T15:38:38;14.90;60.60
40538;DHT22;27925;41.874;12.526;2023-02-28T15:41:04;14.80;61.20
40538;DHT22;27925;41.874;12.526;2023-02-28T15:43:34;14.70;61.60
40538;DHT22;27925;41.874;12.526;2023-02-28T15:46:12;14.60;62.70
40538;DHT22;27925;41.874;12.526;2023-02-28T15:48:53;14.50;63.10
40538;DHT22;27925;41.874;12.526;2023-02-28T15:51:23;14.40;62.90
40538;DHT22;27925;41.874;12.526;2023-02-28T15:54:01;14.40;63.70
40538;DHT22;27925;41.874;12.526;2023-02-28T15:56:30;14.30;64.30
40538;DHT22;27925;41.874;12.526;2023-02-28T15:58:58;14.20;64.80
40538;DHT22;27925;41.874;12.526;2023-02-28T16:01:29;14.20;65.00
40538;DHT22;27925;41.874;12.526;2023-02-28T16:03:59;14.20;65.70
40538;DHT22;27925;41.874;12.526;2023-02-28T16:06:47;14.10;66.00
40538;DHT22;27925;41.874;12.526;2023-02-28T16:09:23;14.10;66.80
40538;DHT22;27925;41.874;12.526;2023-02-28T16:11:51;13.90;67.10
40538;DHT22;27925;41.874;12.526;2023-02-28T16:14:24;13.90;67.20
40538;DHT22;27925;41.874;12.526;2023-02-28T16:16:52;13.90;67.40
40538;DHT22;27925;41.874;12.526;2023-02-28T16:19:19;13.90;68.00
40538;DHT22;27925;41.874;12.526;2023-02-28T16:21:45;13.90;68.90
40538;DHT22;27925;41.874;12.526;2023-02-28T16:24:12;13.80;69.20
40538;DHT22;27925;41.874;12.526;2023-02-28T16:26:44;13.70;69.80
40538;DHT22;27925;41.874;12.526;2023-02-28T16:29:23;13.70;69.60
40538;DHT22;27925;41.874;12.526;2023-02-28T16:31:49;13.60;69.70
40538;DHT22;27925;41.874;12.526;2023-02-28T16:34:15;13.60;69.60
40538;DHT22;27925;41.874;12.526;2023-02-28T16:36:41;13.60;69.40
40538;DHT22;27925;41.874;12.526;2023-02-28T16:39:07;13.50;69.10
40538;DHT22;27925;41.874;12.526;2023-02-28T16:41:34;13.40;69.00
40538;DHT22;27925;41.874;12.526;2023-02-28T16:44:00;13.30;69.40
40538;DHT22;27925;41.874;12.526;2023-02-28T16:46:35;13.20;69.60
40538;DHT22;27925;41.874;12.526;2023-02-28T16:49:01;13.20;70.00
40538;DHT22;27925;41.874;12.526;2023-02-28T16:51:27;13.10;69.90
40538;DHT22;27925;41.874;12.526;2023-02-28T16:53:52;13.10;70.00
40538;DHT22;27925;41.874;12.526;2023-02-28T16:56:21;13.00;69.90
40538;DHT22;27925;41.874;12.526;2023-02-28T16:58:48;13.00;70.10
40538;DHT22;27925;41.874;12.526;2023-02-28T17:01:14;12.90;70.30
40538;DHT22;27925;41.874;12.526;2023-02-28T17:03:40;12.90;70.70
40538;DHT22;27925;41.874;12.526;2023-02-28T17:06:13;12.90;70.80
40538;DHT22;27925;41.874;12.526;2023-02-28T17:08:41;12.80;70.70
40538;DHT22;27925;41.874;12.526;2023-02-28T17:11:08;12.80;70.80
40538;DHT22;27925;41.874;12.526;2023-02-28T17:13:34;12.80;70.90
40538;DHT22;27925;41.874;12.526;2023-02-28T17:16:00;12.70;70.70
40538;DHT22;27925;41.874;12.526;2023-02-28T17:18:26;12.70;70.90
40538;DHT22;27925;41.874;12.526;2023-02-28T17:20:54;12.70;70.90
40538;DHT22;27925;41.874;12.526;2023-02-28T17:23:20;12.60;70.90
40538;DHT22;27925;41.874;12.526;2023-02-28T17:25:49;12.60;70.80
40538;DHT22;27925;41.874;12.526;2023-02-28T17:28:21;12.60;70.90
40538;DHT22;27925;41.874;12.526;2023-02-28T17:30:47;12.60;70.90
40538;DHT22;27925;41.874;12.526;2023-02-28T17:33:14;12.60;70.80
40538;DHT22;27925;41.874;12.526;2023-02-28T17:35:40;12.60;70.90
40538;DHT22;27925;41.874;12.526;2023-02-28T17:38:18;12.50;70.90
40538;DHT22;27925;41.874;12.526;2023-02-28T17:40:44;12.50;71.10
40538;DHT22;27925;41.874;12.526;2023-02-28T17:43:10;12.50;71.20
40538;DHT22;27925;41.874;12.526;2023-02-28T17:45:35;12.50;71.40
40538;DHT22;27925;41.874;12.526;2023-02-28T17:48:02;12.40;71.10
40538;DHT22;27925;41.874;12.526;2023-02-28T17:50:28;12.40;71.30
40538;DHT22;27925;41.874;12.526;2023-02-28T17:52:54;12.40;71.50
40538;DHT22;27925;41.874;12.526;2023-02-28T17:55:19;12.40;71.20
40538;DHT22;27925;41.874;12.526;2023-02-28T17:57:45;12.40;71.50
40538;DHT22;27925;41.874;12.526;2023-02-28T18:00:12;12.40;71.40
40538;DHT22;27925;41.874;12.526;2023-02-28T18:02:39;12.40;71.20
40538;DHT22;27925;41.874;12.526;2023-02-28T18:05:05;12.30;71.20
40538;DHT22;27925;41.874;12.526;2023-02-28T18:07:31;12.30;70.90
40538;DHT22;27925;41.874;12.526;2023-02-28T18:09:56;12.30;70.80